Time;durP1;ratioP1;P1;durP2;ratioP2;P2;SDS_P1;SDS_P2;PMS_P1;PMS_P2;Temp;Humidity;BMP_temperature;BMP_pressure;BME280_temperature;BME280_humidity;BME280_pressure;Samples;Min_cycle;Max_cycle;Signal;HPM_P1;HPM_P2
2022/04/15 19:52:19;;;;;;;8.60;5.05;;;11.00;99.90;;;;;;6195228;22;20027;-88
2022/04/15 19:54:46;;;;;;;7.70;4.80;;;11.00;99.90;;;;;;6323899;22;20018;-87
2022/04/15 20:02:42;;;;;;;6.28;4.78;;;11.00;99.90;;;;;;6322120;22;20041;-88
2022/04/15 20:05:13;;;;;;;5.90;4.47;;;11.00;99.90;;;;;;6315723;22;20369;-90
2022/04/15 20:07:39;;;;;;;7.63;4.60;;;11.00;99.90;;;;;;6289803;22;20084;-88
2022/04/15 20:10:08;;;;;;;7.70;4.78;;;11.00;99.90;;;;;;6295759;22;20015;-93
2022/04/15 20:12:39;;;;;;;6.97;4.90;;;11.00;99.90;;;;;;6296744;22;20342;-89
2022/04/15 20:15:17;;;;;;;6.75;4.75;;;11.00;99.90;;;;;;6292151;22;20014;-89
2022/04/15 20:17:52;;;;;;;6.50;4.88;;;11.00;99.90;;;;;;6291279;22;20366;-93
2022/04/15 20:20:18;;;;;;;7.35;5.18;;;11.00;99.90;;;;;;6290904;22;20003;-89
2022/04/15 20:22:44;;;;;;;7.78;5.78;;;11.00;99.90;;;;;;6288425;22;20023;-88
2022/04/15 20:25:09;;;;;;;7.90;5.43;;;11.00;99.90;;;;;;6264803;22;20003;-93
2022/04/15 20:27:41;;;;;;;9.93;5.75;;;11.00;99.90;;;;;;6317989;22;20014;-89
2022/04/15 20:30:10;;;;;;;7.25;5.43;;;11.00;99.90;;;;;;6289882;22;20066;-94
2022/04/15 20:32:40;;;;;;;7.70;4.78;;;10.90;99.90;;;;;;6286427;22;20014;-93
2022/04/15 20:35:07;;;;;;;8.73;5.65;;;11.00;99.90;;;;;;6286605;22;20049;-91
2022/04/15 20:37:34;;;;;;;9.73;7.20;;;11.00;99.90;;;;;;6321811;22;20007;-90
2022/04/15 20:40:00;;;;;;;9.00;6.68;;;10.90;99.90;;;;;;6295400;22;20008;-90
2022/04/15 20:42:34;;;;;;;5.97;5.35;;;10.90;99.90;;;;;;6288508;22;20027;-92
2022/04/15 20:45:00;;;;;;;7.13;5.80;;;10.90;99.90;;;;;;6288165;22;20145;-91
2022/04/15 20:47:26;;;;;;;8.88;5.43;;;10.90;99.90;;;;;;6289774;22;19999;-90
2022/04/15 20:49:53;;;;;;;9.70;5.65;;;10.90;99.90;;;;;;6290858;22;20094;-90
2022/04/15 20:52:27;;;;;;;7.40;5.75;;;11.00;99.90;;;;;;6288022;22;20024;-90
2022/04/15 20:54:57;;;;;;;8.93;6.60;;;11.00;99.90;;;;;;6290256;22;20006;-91
2022/04/15 20:57:31;;;;;;;6.65;5.50;;;10.90;99.90;;;;;;6289158;22;20391;-95
2022/04/15 21:00:00;;;;;;;7.55;5.72;;;10.90;99.90;;;;;;6294431;22;20055;-89
2022/04/15 21:02:27;;;;;;;10.45;6.15;;;10.90;99.90;;;;;;6293090;22;20003;-90
2022/04/15 21:04:55;;;;;;;8.82;7.15;;;10.90;99.90;;;;;;6294128;22;20004;-89
2022/04/15 21:07:21;;;;;;;9.73;6.88;;;10.80;99.90;;;;;;6295487;22;20079;-89
2022/04/15 21:09:46;;;;;;;7.00;6.10;;;10.80;99.90;;;;;;6287721;22;20505;-90
2022/04/15 21:12:15;;;;;;;8.73;7.30;;;10.80;99.90;;;;;;6282386;22;20452;-89
2022/04/15 21:14:43;;;;;;;7.85;6.35;;;10.80;99.90;;;;;;6282737;22;20003;-90
2022/04/15 21:17:10;;;;;;;8.30;6.07;;;10.70;99.90;;;;;;6282795;22;20058;-90
2022/04/15 21:19:40;;;;;;;10.23;7.47;;;10.70;99.90;;;;;;6292546;22;19999;-89
2022/04/15 21:22:09;;;;;;;8.60;7.15;;;10.70;99.90;;;;;;6287190;22;20031;-89
2022/04/15 21:24:35;;;;;;;9.95;7.40;;;10.60;99.90;;;;;;6285296;22;20055;-90
2022/04/15 21:27:01;;;;;;;9.63;6.82;;;10.60;99.90;;;;;;6283521;22;20082;-89
2022/04/15 21:29:27;;;;;;;9.52;6.45;;;10.60;99.90;;;;;;6283075;22;19999;-89
2022/04/15 21:31:53;;;;;;;8.65;6.72;;;10.50;99.90;;;;;;6282292;22;20039;-89
2022/04/15 21:34:21;;;;;;;8.15;6.35;;;10.60;99.90;;;;;;6282535;22;20049;-89
2022/04/15 21:36:50;;;;;;;7.63;6.43;;;10.60;99.90;;;;;;6282619;22;20086;-89
2022/04/15 21:39:19;;;;;;;9.07;6.97;;;10.60;99.90;;;;;;6282976;22;20039;-90
2022/04/15 21:41:46;;;;;;;7.57;5.75;;;10.60;99.90;;;;;;6282222;22;20449;-89
2022/04/15 21:44:12;;;;;;;7.47;6.00;;;10.60;99.90;;;;;;6284572;22;20018;-89
2022/04/15 21:46:37;;;;;;;8.20;6.47;;;10.50;99.90;;;;;;6286181;22;20325;-89
2022/04/15 21:49:03;;;;;;;7.07;5.70;;;10.50;99.90;;;;;;6285338;22;20007;-89
2022/04/15 21:54:17;;;;;;;8.52;6.68;;;10.50;99.90;;;;;;6313486;22;20026;-90
2022/04/15 21:56:42;;;;;;;7.63;6.40;;;10.50;99.90;;;;;;6285496;22;19999;-89
2022/04/15 21:59:08;;;;;;;7.55;6.03;;;10.40;99.90;;;;;;6285140;22;20182;-89
2022/04/15 22:01:38;;;;;;;7.68;6.03;;;10.50;99.90;;;;;;6285282;22;20085;-89
2022/04/15 22:04:05;;;;;;;7.68;6.50;;;10.50;99.90;;;;;;6285495;22;20004;-90
2022/04/15 22:06:31;;;;;;;8.73;7.57;;;10.40;99.90;;;;;;6286037;22;20099;-91
2022/04/15 22:08:57;;;;;;;10.63;7.30;;;10.40;99.90;;;;;;6285995;22;20342;-91
2022/04/15 22:11:23;;;;;;;12.00;7.28;;;10.40;99.90;;;;;;6285744;22;20015;-90
2022/04/15 22:13:53;;;;;;;9.20;6.97;;;10.40;99.90;;;;;;6312927;22;20021;-89
2022/04/15 22:16:21;;;;;;;8.13;6.60;;;10.30;99.90;;;;;;6285899;22;20007;-89
2022/04/15 22:18:52;;;;;;;7.72;6.15;;;10.40;99.90;;;;;;6285563;22;20004;-89
2022/04/15 22:21:18;;;;;;;7.60;6.40;;;10.30;99.90;;;;;;6284906;22;20003;-89
2022/04/15 22:23:44;;;;;;;8.63;5.90;;;10.30;99.90;;;;;;6285884;22;20011;-90
2022/04/15 22:26:12;;;;;;;8.60;7.30;;;10.30;99.90;;;;;;6286036;22;20333;-89
2022/04/15 22:28:38;;;;;;;10.68;7.38;;;10.30;99.90;;;;;;6285495;22;20005;-88
2022/04/15 22:31:04;;;;;;;8.55;5.90;;;10.30;99.90;;;;;;6285838;22;20042;-89
2022/04/15 22:33:30;;;;;;;11.80;8.18;;;10.20;99.90;;;;;;6312320;22;19996;-89
2022/04/15 22:35:57;;;;;;;10.70;7.50;;;10.20;99.90;;;;;;6284973;22;20003;-89
2022/04/15 22:38:24;;;;;;;12.43;7.57;;;10.20;99.90;;;;;;6312736;22;19995;-90
2022/04/15 22:40:53;;;;;;;10.40;7.97;;;10.10;99.90;;;;;;6285072;22;20137;-90
2022/04/15 22:43:23;;;;;;;10.20;7.68;;;10.20;99.90;;;;;;6285161;22;20417;-90
2022/04/15 22:45:53;;;;;;;9.80;7.35;;;10.10;99.90;;;;;;6285436;22;20015;-90
2022/04/15 22:48:21;;;;;;;11.18;8.70;;;10.10;99.90;;;;;;6285343;22;20003;-90
2022/04/15 22:50:56;;;;;;;8.73;7.45;;;10.10;99.90;;;;;;6285354;22;20057;-88
2022/04/15 22:53:25;;;;;;;11.48;7.72;;;10.10;99.90;;;;;;6285579;22;20081;-89
2022/04/15 22:58:41;;;;;;;9.48;7.68;;;10.10;99.90;;;;;;6311189;22;20088;-90
2022/04/15 23:01:07;;;;;;;8.68;7.43;;;10.00;99.90;;;;;;6312653;22;19995;-89
2022/04/15 23:03:38;;;;;;;8.35;6.75;;;10.00;99.90;;;;;;6291923;22;20010;-89
2022/04/15 23:06:10;;;;;;;8.85;7.00;;;9.90;99.90;;;;;;6293833;22;20029;-90
2022/04/15 23:08:39;;;;;;;8.00;7.07;;;9.80;99.90;;;;;;6291667;22;20028;-91
2022/04/15 23:11:09;;;;;;;11.05;8.50;;;9.60;99.90;;;;;;6291670;22;20046;-89
2022/04/15 23:13:38;;;;;;;10.18;7.75;;;9.60;99.90;;;;;;6290336;22;20090;-90
2022/04/15 23:16:08;;;;;;;9.23;7.63;;;9.50;99.90;;;;;;6284466;22;20348;-90
2022/04/15 23:18:37;;;;;;;9.60;7.80;;;9.40;99.90;;;;;;6286585;22;20003;-90
2022/04/15 23:21:07;;;;;;;10.30;7.00;;;9.30;99.90;;;;;;6283650;22;20064;-89
2022/04/15 23:23:34;;;;;;;9.95;7.93;;;9.20;99.90;;;;;;6283771;22;20007;-89
2022/04/15 23:26:01;;;;;;;9.98;8.35;;;9.20;99.90;;;;;;6283596;22;20063;-89
2022/04/15 23:28:27;;;;;;;11.20;8.32;;;9.10;99.90;;;;;;6283102;22;20082;-90
2022/04/15 23:30:55;;;;;;;10.45;7.22;;;9.10;99.90;;;;;;6283055;22;20501;-89
2022/04/15 23:33:21;;;;;;;11.13;8.55;;;9.00;99.90;;;;;;6282579;22;20031;-89
2022/04/15 23:35:47;;;;;;;12.63;8.70;;;9.00;99.90;;;;;;6283202;22;20003;-89
2022/04/15 23:38:14;;;;;;;10.10;8.45;;;8.90;99.90;;;;;;6283180;22;20003;-89
2022/04/15 23:40:40;;;;;;;9.27;8.02;;;8.90;99.90;;;;;;6283069;22;20376;-90
2022/04/15 23:43:06;;;;;;;9.77;8.00;;;8.80;99.90;;;;;;6283444;22;19996;-90
2022/04/15 23:45:31;;;;;;;9.20;7.50;;;8.80;99.90;;;;;;6283092;22;20014;-90
2022/04/15 23:50:41;;;;;;;10.93;7.72;;;8.70;99.90;;;;;;6313391;22;20396;-89
2022/04/15 23:53:07;;;;;;;10.98;8.23;;;8.70;99.90;;;;;;6287346;22;20015;-90
2022/04/15 23:55:34;;;;;;;10.45;8.25;;;8.70;99.90;;;;;;6283174;22;20003;-89
2022/04/15 23:58:00;;;;;;;10.02;7.70;;;8.60;99.90;;;;;;6284260;22;20086;-89
